sensor_id;sensor_type;location;lat;lon;timestamp;pressure;altitude;pressure_sealevel;temperature;humidity
81658;BME280;71057;51.436;6.768;2024-01-30T00:00:16;102349.97;;;8.64;100.00
81658;BME280;71057;51.436;6.768;2024-01-30T00:02:42;102344.75;;;8.63;100.00
81658;BME280;71057;51.436;6.768;2024-01-30T00:05:08;102357.22;;;8.55;100.00
81658;BME280;71057;51.436;6.768;2024-01-30T00:07:33;102350.19;;;8.54;100.00
81658;BME280;71057;51.436;6.768;2024-01-30T00:09:59;102352.19;;;8.52;100.00
81658;BME280;71057;51.436;6.768;2024-01-30T00:12:24;102345.13;;;8.51;100.00
81658;BME280;71057;51.436;6.768;2024-01-30T00:14:49;102348.00;;;8.50;100.00
81658;BME280;71057;51.436;6.768;2024-01-30T00:17:14;102346.47;;;8.55;100.00
81658;BME280;71057;51.436;6.768;2024-01-30T00:19:40;102340.94;;;8.49;100.00
81658;BME280;71057;51.436;6.768;2024-01-30T00:22:05;102346.53;;;8.39;100.00
81658;BME280;71057;51.436;6.768;2024-01-30T00:24:30;102333.25;;;8.38;100.00
81658;BME280;71057;51.436;6.768;2024-01-30T00:26:56;102341.47;;;8.44;100.00
81658;BME280;71057;51.436;6.768;2024-01-30T00:29:21;102331.03;;;8.41;100.00
81658;BME280;71057;51.436;6.768;2024-01-30T00:31:48;102335.25;;;8.44;100.00
81658;BME280;71057;51.436;6.768;2024-01-30T00:34:13;102335.75;;;8.47;100.00
81658;BME280;71057;51.436;6.768;2024-01-30T00:36:38;102335.09;;;8.45;100.00
81658;BME280;71057;51.436;6.768;2024-01-30T00:39:03;102325.19;;;8.38;100.00
81658;BME280;71057;51.436;6.768;2024-01-30T00:41:34;102329.19;;;8.42;100.00
81658;BME280;71057;51.436;6.768;2024-01-30T00:43:59;102321.66;;;8.37;100.00
81658;BME280;71057;51.436;6.768;2024-01-30T00:46:25;102327.19;;;8.44;100.00
81658;BME280;71057;51.436;6.768;2024-01-30T00:48:50;102331.19;;;8.48;100.00
81658;BME280;71057;51.436;6.768;2024-01-30T00:51:15;102324.66;;;8.42;100.00
81658;BME280;71057;51.436;6.768;2024-01-30T00:53:41;102321.97;;;8.42;100.00
81658;BME280;71057;51.436;6.768;2024-01-30T00:56:07;102318.44;;;8.42;100.00
81658;BME280;71057;51.436;6.768;2024-01-30T00:58:33;102332.06;;;8.40;100.00
81658;BME280;71057;51.436;6.768;2024-01-30T01:00:58;102329.69;;;8.45;100.00
81658;BME280;71057;51.436;6.768;2024-01-30T01:03:23;102337.44;;;8.40;100.00
81658;BME280;71057;51.436;6.768;2024-01-30T01:05:48;102329.00;;;8.43;100.00
81658;BME280;71057;51.436;6.768;2024-01-30T01:08:14;102332.41;;;8.45;100.00
81658;BME280;71057;51.436;6.768;2024-01-30T01:10:40;102333.22;;;8.46;100.00
81658;BME280;71057;51.436;6.768;2024-01-30T01:13:05;102332.06;;;8.40;100.00
81658;BME280;71057;51.436;6.768;2024-01-30T01:15:30;102329.38;;;8.40;100.00
81658;BME280;71057;51.436;6.768;2024-01-30T01:17:56;102330.38;;;8.39;100.00
81658;BME280;71057;51.436;6.768;2024-01-30T01:20:21;102336.78;;;8.38;100.00
81658;BME280;71057;51.436;6.768;2024-01-30T01:22:46;102336.41;;;8.33;100.00
81658;BME280;71057;51.436;6.768;2024-01-30T01:25:12;102334.25;;;8.28;100.00
81658;BME280;71057;51.436;6.768;2024-01-30T01:27:37;102329.53;;;8.30;100.00
81658;BME280;71057;51.436;6.768;2024-01-30T01:30:10;102336.13;;;8.28;100.00
81658;BME280;71057;51.436;6.768;2024-01-30T01:32:36;102330.75;;;8.36;100.00
81658;BME280;71057;51.436;6.768;2024-01-30T01:35:03;102330.72;;;8.44;100.00
81658;BME280;71057;51.436;6.768;2024-01-30T01:37:30;102319.13;;;8.44;100.00
81658;BME280;71057;51.436;6.768;2024-01-30T01:39:56;102323.16;;;8.40;100.00
81658;BME280;71057;51.436;6.768;2024-01-30T01:42:21;102317.25;;;8.44;100.00
81658;BME280;71057;51.436;6.768;2024-01-30T01:44:47;102314.22;;;8.47;100.00
81658;BME280;71057;51.436;6.768;2024-01-30T01:47:12;102311.16;;;8.50;100.00
81658;BME280;71057;51.436;6.768;2024-01-30T01:49:38;102313.38;;;8.47;100.00
81658;BME280;71057;51.436;6.768;2024-01-30T01:52:04;102316.38;;;8.52;100.00
81658;BME280;71057;51.436;6.768;2024-01-30T01:54:30;102315.22;;;8.46;100.00
81658;BME280;71057;51.436;6.768;2024-01-30T01:56:55;102316.25;;;8.45;100.00
81658;BME280;71057;51.436;6.768;2024-01-30T01:59:21;102313.88;;;8.42;100.00
81658;BME280;71057;51.436;6.768;2024-01-30T02:01:47;102310.69;;;8.47;100.00
81658;BME280;71057;51.436;6.768;2024-01-30T02:04:14;102306.84;;;8.41;100.00
81658;BME280;71057;51.436;6.768;2024-01-30T02:06:40;102307.50;;;8.43;100.00
81658;BME280;71057;51.436;6.768;2024-01-30T02:09:06;102309.22;;;8.36;100.00
81658;BME280;71057;51.436;6.768;2024-01-30T02:11:32;102295.97;;;8.35;100.00
81658;BME280;71057;51.436;6.768;2024-01-30T02:14:02;102312.94;;;8.35;100.00
81658;BME280;71057;51.436;6.768;2024-01-30T02:16:27;102297.44;;;8.37;100.00
81658;BME280;71057;51.436;6.768;2024-01-30T02:18:53;102296.25;;;8.40;100.00
81658;BME280;71057;51.436;6.768;2024-01-30T02:21:19;102295.97;;;8.35;100.00
81658;BME280;71057;51.436;6.768;2024-01-30T02:23:46;102286.31;;;8.32;100.00
81658;BME280;71057;51.436;6.768;2024-01-30T02:26:12;102299.97;;;8.30;100.00
81658;BME280;71057;51.436;6.768;2024-01-30T02:28:38;102286.34;;;8.24;100.00
81658;BME280;71057;51.436;6.768;2024-01-30T02:31:04;102283.56;;;8.17;100.00
81658;BME280;71057;51.436;6.768;2024-01-30T02:33:29;102285.69;;;8.22;100.00
81658;BME280;71057;51.436;6.768;2024-01-30T02:35:55;102280.03;;;8.17;100.00
81658;BME280;71057;51.436;6.768;2024-01-30T02:38:20;102280.53;;;8.12;100.00
81658;BME280;71057;51.436;6.768;2024-01-30T02:40:45;102276.16;;;8.11;100.00
81658;BME280;71057;51.436;6.768;2024-01-30T02:43:11;102271.13;;;8.16;100.00
81658;BME280;71057;51.436;6.768;2024-01-30T02:48:58;102271.63;;;8.12;100.00
81658;BME280;71057;51.436;6.768;2024-01-30T02:51:23;102273.97;;;8.15;100.00
81658;BME280;71057;51.436;6.768;2024-01-30T02:53:48;102263.91;;;8.09;100.00
81658;BME280;71057;51.436;6.768;2024-01-30T02:56:14;102258.19;;;8.12;100.00
81658;BME280;71057;51.436;6.768;2024-01-30T02:58:40;102252.81;;;8.12;100.00
81658;BME280;71057;51.436;6.768;2024-01-30T03:01:06;102256.16;;;8.14;100.00
81658;BME280;71057;51.436;6.768;2024-01-30T03:03:32;102258.50;;;8.17;100.00
81658;BME280;71057;51.436;6.768;2024-01-30T03:05:57;102263.38;;;8.13;100.00
81658;BME280;71057;51.436;6.768;2024-01-30T03:08:22;102257.13;;;8.21;100.00
81658;BME280;71057;51.436;6.768;2024-01-30T03:10:48;102262.22;;;8.16;100.00
81658;BME280;71057;51.436;6.768;2024-01-30T03:13:13;102261.06;;;8.10;100.00
81658;BME280;71057;51.436;6.768;2024-01-30T03:15:39;102250.25;;;8.18;100.00
81658;BME280;71057;51.436;6.768;2024-01-30T03:18:04;102252.75;;;8.28;100.00
81658;BME280;71057;51.436;6.768;2024-01-30T03:20:30;102258.47;;;8.25;100.00
81658;BME280;71057;51.436;6.768;2024-01-30T03:22:55;102258.13;;;8.28;100.00
81658;BME280;71057;51.436;6.768;2024-01-30T03:25:21;102251.41;;;8.24;100.00
81658;BME280;71057;51.436;6.768;2024-01-30T03:27:46;102255.59;;;8.35;100.00
81658;BME280;71057;51.436;6.768;2024-01-30T03:30:12;102259.59;;;8.30;100.00
81658;BME280;71057;51.436;6.768;2024-01-30T03:32:37;102246.00;;;8.24;100.00
81658;BME280;71057;51.436;6.768;2024-01-30T03:35:03;102245.88;;;8.25;100.00
81658;BME280;71057;51.436;6.768;2024-01-30T03:37:29;102251.72;;;8.29;100.00
81658;BME280;71057;51.436;6.768;2024-01-30T03:39:54;102251.56;;;8.22;100.00
81658;BME280;71057;51.436;6.768;2024-01-30T03:42:19;102256.16;;;8.14;100.00
81658;BME280;71057;51.436;6.768;2024-01-30T03:44:45;102250.22;;;8.26;100.00
81658;BME280;71057;51.436;6.768;2024-01-30T03:47:10;102236.63;;;8.20;100.00
81658;BME280;71057;51.436;6.768;2024-01-30T03:49:35;102242.88;;;8.12;100.00
81658;BME280;71057;51.436;6.768;2024-01-30T03:52:01;102242.41;;;8.09;100.00
81658;BME280;71057;51.436;6.768;2024-01-30T03:54:26;102246.59;;;8.11;100.00
81658;BME280;71057;51.436;6.768;2024-01-30T03:56:51;102243.91;;;8.11;100.00
81658;BME280;71057;51.436;6.768;2024-01-30T03:59:17;102243.03;;;8.19;100.00
81658;BME280;71057;51.436;6.768;2024-01-30T04:01:47;102242.88;;;8.12;100.00
81658;BME280;71057;51.436;6.768;2024-01-30T04:04:12;102237.88;;;8.09;100.00
81658;BME280;71057;51.436;6.768;2024-01-30T04:06:38;102239.72;;;8.09;100.00
81658;BME280;71057;51.436;6.768;2024-01-30T04:09:03;102228.44;;;8.05;100.00
81658;BME280;71057;51.436;6.768;2024-01-30T04:11:28;102224.44;;;8.01;100.00
81658;BME280;71057;51.436;6.768;2024-01-30T04:13:54;102222.25;;;8.05;100.00
81658;BME280;71057;51.436;6.768;2024-01-30T04:16:20;102217.91;;;7.95;100.00
81658;BME280;71057;51.436;6.768;2024-01-30T04:18:47;102214.09;;;7.90;100.00
81658;BME280;71057;51.436;6.768;2024-01-30T04:21:12;102224.66;;;7.91;100.00
81658;BME280;71057;51.436;6.768;2024-01-30T04:23:37;102217.25;;;7.93;100.00
81658;BME280;71057;51.436;6.768;2024-01-30T04:26:03;102213.53;;;7.94;100.00
81658;BME280;71057;51.436;6.768;2024-01-30T04:28:28;102217.91;;;7.95;100.00
81658;BME280;71057;51.436;6.768;2024-01-30T04:30:54;102219.91;;;8.01;100.00
81658;BME280;71057;51.436;6.768;2024-01-30T04:33:22;102227.31;;;7.99;100.00
81658;BME280;71057;51.436;6.768;2024-01-30T04:35:47;102226.31;;;8.00;100.00
81658;BME280;71057;51.436;6.768;2024-01-30T04:38:13;102228.31;;;8.07;100.00
81658;BME280;71057;51.436;6.768;2024-01-30T04:40:39;102224.59;;;8.08;100.00
81658;BME280;71057;51.436;6.768;2024-01-30T04:43:05;102218.50;;;8.14;100.00
81658;BME280;71057;51.436;6.768;2024-01-30T04:45:30;102225.94;;;8.03;100.00
81658;BME280;71057;51.436;6.768;2024-01-30T04:47:55;102231.66;;;8.09;100.00
81658;BME280;71057;51.436;6.768;2024-01-30T04:50:20;102227.59;;;8.13;100.00
81658;BME280;71057;51.436;6.768;2024-01-30T04:52:46;102232.78;;;8.14;100.00
81658;BME280;71057;51.436;6.768;2024-01-30T04:55:11;102226.75;;;8.12;100.00
81658;BME280;71057;51.436;6.768;2024-01-30T04:57:36;102226.28;;;8.09;100.00
81658;BME280;71057;51.436;6.768;2024-01-30T05:00:02;102222.03;;;8.14;100.00
81658;BME280;71057;51.436;6.768;2024-01-30T05:02:28;102226.56;;;8.14;100.00
81658;BME280;71057;51.436;6.768;2024-01-30T05:04:53;102222.72;;;8.16;100.00
81658;BME280;71057;51.436;6.768;2024-01-30T05:07:19;102224.69;;;8.22;100.00
81658;BME280;71057;51.436;6.768;2024-01-30T05:09:44;102226.72;;;8.20;100.00
81658;BME280;71057;51.436;6.768;2024-01-30T05:12:09;102219.19;;;8.16;100.00
81658;BME280;71057;51.436;6.768;2024-01-30T05:14:35;102219.84;;;8.18;100.00
81658;BME280;71057;51.436;6.768;2024-01-30T05:17:00;102213.97;;;8.14;100.00
81658;BME280;71057;51.436;6.768;2024-01-30T05:19:25;102216.78;;;8.21;100.00
81658;BME280;71057;51.436;6.768;2024-01-30T05:21:50;102214.09;;;8.21;100.00
81658;BME280;71057;51.436;6.768;2024-01-30T05:24:16;102211.56;;;8.27;100.00
81658;BME280;71057;51.436;6.768;2024-01-30T05:26:41;102209.69;;;8.28;100.00
81658;BME280;71057;51.436;6.768;2024-01-30T05:29:07;102211.22;;;8.22;100.00
81658;BME280;71057;51.436;6.768;2024-01-30T05:31:33;102215.44;;;8.25;100.00
81658;BME280;71057;51.436;6.768;2024-01-30T05:33:59;102223.19;;;8.20;100.00
81658;BME280;71057;51.436;6.768;2024-01-30T05:36:25;102212.63;;;8.18;100.00
81658;BME280;71057;51.436;6.768;2024-01-30T05:38:50;102204.03;;;8.15;100.00
81658;BME280;71057;51.436;6.768;2024-01-30T05:41:16;102207.94;;;8.12;100.00
81658;BME280;71057;51.436;6.768;2024-01-30T05:43:41;102209.41;;;8.15;100.00
81658;BME280;71057;51.436;6.768;2024-01-30T05:46:06;102210.44;;;8.14;100.00
81658;BME280;71057;51.436;6.768;2024-01-30T05:48:31;102205.13;;;8.06;100.00
81658;BME280;71057;51.436;6.768;2024-01-30T05:50:57;102203.41;;;8.05;100.00
81658;BME280;71057;51.436;6.768;2024-01-30T05:53:22;102196.50;;;8.10;100.00
81658;BME280;71057;51.436;6.768;2024-01-30T05:55:47;102187.13;;;8.06;100.00
81658;BME280;71057;51.436;6.768;2024-01-30T05:58:13;102190.69;;;7.98;100.00
81658;BME280;71057;51.436;6.768;2024-01-30T06:00:38;102198.75;;;7.98;100.00
81658;BME280;71057;51.436;6.768;2024-01-30T06:03:04;102196.72;;;8.00;100.00
81658;BME280;71057;51.436;6.768;2024-01-30T06:05:29;102202.09;;;8.00;100.00
81658;BME280;71057;51.436;6.768;2024-01-30T06:07:55;102195.69;;;8.10;100.00
81658;BME280;71057;51.436;6.768;2024-01-30T06:10:20;102204.75;;;8.09;100.00
81658;BME280;71057;51.436;6.768;2024-01-30T06:12:45;102207.28;;;8.10;100.00
81658;BME280;71057;51.436;6.768;2024-01-30T06:15:10;102207.09;;;8.12;100.00
81658;BME280;71057;51.436;6.768;2024-01-30T06:17:37;102212.06;;;8.23;100.00
81658;BME280;71057;51.436;6.768;2024-01-30T06:20:03;102210.06;;;8.25;100.00
81658;BME280;71057;51.436;6.768;2024-01-30T06:22:29;102204.69;;;8.25;100.00
81658;BME280;71057;51.436;6.768;2024-01-30T06:24:54;102205.16;;;8.28;100.00
81658;BME280;71057;51.436;6.768;2024-01-30T06:27:19;102198.09;;;8.27;100.00
81658;BME280;71057;51.436;6.768;2024-01-30T06:29:46;102191.53;;;8.30;100.00
81658;BME280;71057;51.436;6.768;2024-01-30T06:32:11;102202.75;;;8.34;100.00
81658;BME280;71057;51.436;6.768;2024-01-30T06:34:36;102204.97;;;8.38;100.00
81658;BME280;71057;51.436;6.768;2024-01-30T06:37:03;102201.63;;;8.36;100.00
81658;BME280;71057;51.436;6.768;2024-01-30T06:39:28;102201.25;;;8.39;100.00
81658;BME280;71057;51.436;6.768;2024-01-30T06:41:54;102190.31;;;8.41;100.00
81658;BME280;71057;51.436;6.768;2024-01-30T06:44:19;102199.59;;;8.38;100.00
81658;BME280;71057;51.436;6.768;2024-01-30T06:46:44;102202.28;;;8.38;100.00
81658;BME280;71057;51.436;6.768;2024-01-30T06:49:10;102206.28;;;8.42;100.00
81658;BME280;71057;51.436;6.768;2024-01-30T06:51:35;102193.50;;;8.44;100.00
81658;BME280;71057;51.436;6.768;2024-01-30T06:54:00;102206.97;;;8.44;100.00
81658;BME280;71057;51.436;6.768;2024-01-30T06:56:26;102210.63;;;8.43;100.00
81658;BME280;71057;51.436;6.768;2024-01-30T06:58:51;102215.13;;;8.51;100.00
81658;BME280;71057;51.436;6.768;2024-01-30T07:01:16;102215.69;;;8.46;100.00
81658;BME280;71057;51.436;6.768;2024-01-30T07:03:42;102221.72;;;8.48;100.00
81658;BME280;71057;51.436;6.768;2024-01-30T07:06:08;102224.72;;;8.53;100.00
81658;BME280;71057;51.436;6.768;2024-01-30T07:08:34;102230.25;;;8.52;100.00
81658;BME280;71057;51.436;6.768;2024-01-30T07:10:59;102220.00;;;8.55;100.00
81658;BME280;71057;51.436;6.768;2024-01-30T07:13:25;102213.59;;;8.56;100.00
81658;BME280;71057;51.436;6.768;2024-01-30T07:15:50;102214.63;;;8.55;100.00
81658;BME280;71057;51.436;6.768;2024-01-30T07:18:15;102220.66;;;8.57;100.00
81658;BME280;71057;51.436;6.768;2024-01-30T07:20:41;102220.78;;;8.64;100.00
81658;BME280;71057;51.436;6.768;2024-01-30T07:23:14;102217.59;;;8.61;100.00
81658;BME280;71057;51.436;6.768;2024-01-30T07:25:42;102222.78;;;8.62;100.00
81658;BME280;71057;51.436;6.768;2024-01-30T07:28:08;102217.91;;;8.66;100.00
81658;BME280;71057;51.436;6.768;2024-01-30T07:30:41;102224.31;;;8.65;100.00
81658;BME280;71057;51.436;6.768;2024-01-30T07:33:07;102231.66;;;8.71;100.00
81658;BME280;71057;51.436;6.768;2024-01-30T07:35:33;102229.31;;;8.68;100.00
81658;BME280;71057;51.436;6.768;2024-01-30T07:37:58;102233.16;;;8.73;100.00
81658;BME280;71057;51.436;6.768;2024-01-30T07:40:24;102245.09;;;8.71;100.00
81658;BME280;71057;51.436;6.768;2024-01-30T07:42:49;102252.84;;;8.74;100.00
81658;BME280;71057;51.436;6.768;2024-01-30T07:45:14;102251.63;;;8.76;100.00
81658;BME280;71057;51.436;6.768;2024-01-30T07:47:40;102247.22;;;8.83;100.00
81658;BME280;71057;51.436;6.768;2024-01-30T07:50:06;102247.16;;;8.92;100.00
81658;BME280;71057;51.436;6.768;2024-01-30T07:52:31;102250.38;;;8.87;100.00
81658;BME280;71057;51.436;6.768;2024-01-30T07:54:57;102255.16;;;9.00;100.00
81658;BME280;71057;51.436;6.768;2024-01-30T07:57:22;102258.72;;;9.00;100.00
81658;BME280;71057;51.436;6.768;2024-01-30T07:59:47;102261.22;;;9.02;100.00
81658;BME280;71057;51.436;6.768;2024-01-30T08:02:13;102261.41;;;9.00;100.00
81658;BME280;71057;51.436;6.768;2024-01-30T08:04:38;102258.34;;;9.03;100.00
81658;BME280;71057;51.436;6.768;2024-01-30T08:07:04;102253.91;;;9.10;100.00
81658;BME280;71057;51.436;6.768;2024-01-30T08:09:29;102257.00;;;9.22;100.00
81658;BME280;71057;51.436;6.768;2024-01-30T08:11:55;102255.69;;;9.18;100.00
81658;BME280;71057;51.436;6.768;2024-01-30T08:14:20;102269.34;;;9.16;100.00
81658;BME280;71057;51.436;6.768;2024-01-30T08:16:45;102272.34;;;9.22;100.00
81658;BME280;71057;51.436;6.768;2024-01-30T08:19:11;102277.94;;;9.35;100.00
81658;BME280;71057;51.436;6.768;2024-01-30T08:21:36;102278.31;;;9.32;100.00
81658;BME280;71057;51.436;6.768;2024-01-30T08:24:05;102277.94;;;9.35;100.00
81658;BME280;71057;51.436;6.768;2024-01-30T08:26:31;102272.34;;;9.36;100.00
81658;BME280;71057;51.436;6.768;2024-01-30T08:28:57;102273.50;;;9.42;100.00
81658;BME280;71057;51.436;6.768;2024-01-30T08:31:22;102270.63;;;9.43;100.00
81658;BME280;71057;51.436;6.768;2024-01-30T08:33:48;102263.28;;;9.52;100.00
81658;BME280;71057;51.436;6.768;2024-01-30T08:36:13;102264.97;;;9.53;100.00
81658;BME280;71057;51.436;6.768;2024-01-30T08:38:38;102266.44;;;9.56;100.00
81658;BME280;71057;51.436;6.768;2024-01-30T08:41:03;102274.38;;;9.57;100.00
81658;BME280;71057;51.436;6.768;2024-01-30T08:43:30;102271.56;;;9.65;100.00
81658;BME280;71057;51.436;6.768;2024-01-30T08:45:55;102272.06;;;9.69;100.00
81658;BME280;71057;51.436;6.768;2024-01-30T08:48:22;102276.97;;;9.65;100.00
81658;BME280;71057;51.436;6.768;2024-01-30T08:50:47;102280.97;;;9.69;100.00
81658;BME280;71057;51.436;6.768;2024-01-30T08:53:13;102270.75;;;9.80;100.00
81658;BME280;71057;51.436;6.768;2024-01-30T08:55:38;102283.22;;;9.81;100.00
81658;BME280;71057;51.436;6.768;2024-01-30T08:58:04;102287.78;;;9.80;100.00
81658;BME280;71057;51.436;6.768;2024-01-30T09:00:30;102283.50;;;9.71;100.00
81658;BME280;71057;51.436;6.768;2024-01-30T09:02:55;102279.69;;;9.80;100.00
81658;BME280;71057;51.436;6.768;2024-01-30T09:05:20;102287.59;;;9.82;100.00
81658;BME280;71057;51.436;6.768;2024-01-30T09:07:46;102295.41;;;9.91;100.00
81658;BME280;71057;51.436;6.768;2024-01-30T09:10:11;102300.34;;;9.88;100.00
81658;BME280;71057;51.436;6.768;2024-01-30T09:12:36;102307.41;;;9.89;100.00
81658;BME280;71057;51.436;6.768;2024-01-30T09:15:02;102311.41;;;9.93;100.00
81658;BME280;71057;51.436;6.768;2024-01-30T09:17:28;102308.50;;;9.94;100.00
81658;BME280;71057;51.436;6.768;2024-01-30T09:19:53;102311.59;;;10.06;100.00
81658;BME280;71057;51.436;6.768;2024-01-30T09:22:18;102309.16;;;10.11;100.00
81658;BME280;71057;51.436;6.768;2024-01-30T09:24:44;102309.19;;;10.26;100.00
81658;BME280;71057;51.436;6.768;2024-01-30T09:27:09;102314.66;;;10.33;100.00
81658;BME280;71057;51.436;6.768;2024-01-30T09:29:35;102300.25;;;10.40;100.00
81658;BME280;71057;51.436;6.768;2024-01-30T09:32:01;102305.34;;;10.50;100.00
81658;BME280;71057;51.436;6.768;2024-01-30T09:34:26;102305.72;;;10.47;100.00
81658;BME280;71057;51.436;6.768;2024-01-30T09:36:52;102306.34;;;10.64;100.00
81658;BME280;71057;51.436;6.768;2024-01-30T09:39:17;102302.22;;;10.68;100.00
81658;BME280;71057;51.436;6.768;2024-01-30T09:41:48;102304.75;;;10.69;100.00
81658;BME280;71057;51.436;6.768;2024-01-30T09:44:16;102300.78;;;10.86;100.00
81658;BME280;71057;51.436;6.768;2024-01-30T09:46:42;102297.56;;;10.76;100.00
81658;BME280;71057;51.436;6.768;2024-01-30T09:49:08;102304.50;;;10.85;100.00
81658;BME280;71057;51.436;6.768;2024-01-30T09:51:34;102299.25;;;10.99;100.00
81658;BME280;71057;51.436;6.768;2024-01-30T09:54:02;102301.63;;;11.08;100.00
81658;BME280;71057;51.436;6.768;2024-01-30T09:56:28;102314.97;;;11.10;100.00
81658;BME280;71057;51.436;6.768;2024-01-30T09:58:54;102315.84;;;11.17;100.00
81658;BME280;71057;51.436;6.768;2024-01-30T10:01:19;102306.41;;;11.28;100.00
81658;BME280;71057;51.436;6.768;2024-01-30T10:03:45;102305.41;;;11.35;100.00
81658;BME280;71057;51.436;6.768;2024-01-30T10:06:11;102306.94;;;11.44;100.00
81658;BME280;71057;51.436;6.768;2024-01-30T10:08:36;102301.41;;;11.53;100.00
81658;BME280;71057;51.436;6.768;2024-01-30T10:11:03;102304.84;;;11.68;100.00
81658;BME280;71057;51.436;6.768;2024-01-30T10:13:28;102304.38;;;11.58;100.00
81658;BME280;71057;51.436;6.768;2024-01-30T10:15:54;102298.84;;;11.72;100.00
81658;BME280;71057;51.436;6.768;2024-01-30T10:18:20;102301.34;;;11.74;100.00
81658;BME280;71057;51.436;6.768;2024-01-30T10:20:47;102308.59;;;11.67;100.00
81658;BME280;71057;51.436;6.768;2024-01-30T10:23:13;102303.31;;;11.59;100.00
81658;BME280;71057;51.436;6.768;2024-01-30T10:25:38;102313.66;;;11.49;100.00
81658;BME280;71057;51.436;6.768;2024-01-30T10:28:04;102308.34;;;11.62;100.00
81658;BME280;71057;51.436;6.768;2024-01-30T10:30:29;102318.13;;;11.63;100.00
81658;BME280;71057;51.436;6.768;2024-01-30T10:32:54;102320.75;;;11.78;100.00
81658;BME280;71057;51.436;6.768;2024-01-30T10:35:20;102324.41;;;11.70;100.00
81658;BME280;71057;51.436;6.768;2024-01-30T10:37:48;102319.97;;;11.84;100.00
81658;BME280;71057;51.436;6.768;2024-01-30T10:40:14;102307.56;;;11.96;100.00
81658;BME280;71057;51.436;6.768;2024-01-30T10:42:45;102312.56;;;11.99;100.00
81658;BME280;71057;51.436;6.768;2024-01-30T10:45:13;102326.72;;;11.94;100.00
81658;BME280;71057;51.436;6.768;2024-01-30T10:47:43;102325.13;;;12.07;100.00
81658;BME280;71057;51.436;6.768;2024-01-30T10:50:09;102321.66;;;12.19;100.00
81658;BME280;71057;51.436;6.768;2024-01-30T10:52:35;102321.38;;;12.08;100.00
81658;BME280;71057;51.436;6.768;2024-01-30T10:55:04;102320.28;;;11.95;100.00
81658;BME280;71057;51.436;6.768;2024-01-30T10:57:34;102315.34;;;12.06;100.00
81658;BME280;71057;51.436;6.768;2024-01-30T11:00:00;102318.50;;;12.16;100.00
81658;BME280;71057;51.436;6.768;2024-01-30T11:02:27;102318.72;;;12.21;100.00
81658;BME280;71057;51.436;6.768;2024-01-30T11:04:57;102322.09;;;12.23;100.00
81658;BME280;71057;51.436;6.768;2024-01-30T11:07:28;102322.56;;;12.33;100.00
81658;BME280;71057;51.436;6.768;2024-01-30T11:10:02;102327.56;;;12.36;100.00
81658;BME280;71057;51.436;6.768;2024-01-30T11:12:30;102309.94;;;12.53;100.00
81658;BME280;71057;51.436;6.768;2024-01-30T11:15:08;102316.75;;;12.36;100.00
81658;BME280;71057;51.436;6.768;2024-01-30T11:20:22;102328.66;;;12.48;100.00
81658;BME280;71057;51.436;6.768;2024-01-30T11:22:50;102331.63;;;12.53;100.00
81658;BME280;71057;51.436;6.768;2024-01-30T11:25:18;102333.63;;;12.38;100.00
81658;BME280;71057;51.436;6.768;2024-01-30T11:27:45;102337.16;;;12.32;100.00
81658;BME280;71057;51.436;6.768;2024-01-30T11:30:21;102329.81;;;12.26;100.00
81658;BME280;71057;51.436;6.768;2024-01-30T11:33:10;102337.50;;;12.22;100.00
81658;BME280;71057;51.436;6.768;2024-01-30T11:35:45;102327.56;;;12.01;100.00
81658;BME280;71057;51.436;6.768;2024-01-30T11:38:13;102328.88;;;12.06;100.00
81658;BME280;71057;51.436;6.768;2024-01-30T11:40:39;102330.09;;;11.75;100.00
81658;BME280;71057;51.436;6.768;2024-01-30T11:43:06;102340.75;;;11.83;100.00
81658;BME280;71057;51.436;6.768;2024-01-30T11:45:33;102344.63;;;11.74;100.00
81658;BME280;71057;51.436;6.768;2024-01-30T11:47:58;102336.84;;;11.64;100.00
81658;BME280;71057;51.436;6.768;2024-01-30T11:50:29;102332.38;;;11.78;100.00
81658;BME280;71057;51.436;6.768;2024-01-30T11:52:54;102324.78;;;11.88;100.00
81658;BME280;71057;51.436;6.768;2024-01-30T11:55:20;102325.63;;;11.89;100.00
81658;BME280;71057;51.436;6.768;2024-01-30T11:57:45;102319.81;;;11.92;100.00
81658;BME280;71057;51.436;6.768;2024-01-30T12:00:15;102318.00;;;11.99;100.00
81658;BME280;71057;51.436;6.768;2024-01-30T12:02:41;102318.03;;;12.06;100.00
81658;BME280;71057;51.436;6.768;2024-01-30T12:05:07;102310.56;;;12.08;100.00
81658;BME280;71057;51.436;6.768;2024-01-30T12:07:33;102304.72;;;12.11;100.00
81658;BME280;71057;51.436;6.768;2024-01-30T12:09:59;102308.56;;;12.23;100.00
81658;BME280;71057;51.436;6.768;2024-01-30T12:12:26;102314.50;;;12.12;100.00
81658;BME280;71057;51.436;6.768;2024-01-30T12:14:52;102308.56;;;12.23;100.00
81658;BME280;71057;51.436;6.768;2024-01-30T12:20:03;102305.44;;;12.26;100.00
81658;BME280;71057;51.436;6.768;2024-01-30T12:22:28;102313.56;;;12.26;100.00
81658;BME280;71057;51.436;6.768;2024-01-30T12:24:53;102312.94;;;12.30;100.00
81658;BME280;71057;51.436;6.768;2024-01-30T12:27:19;102309.03;;;12.33;100.00
81658;BME280;71057;51.436;6.768;2024-01-30T12:29:44;102311.06;;;12.31;100.00
81658;BME280;71057;51.436;6.768;2024-01-30T12:32:15;102321.91;;;12.31;100.00
81658;BME280;71057;51.436;6.768;2024-01-30T12:34:41;102315.19;;;12.20;100.00
81658;BME280;71057;51.436;6.768;2024-01-30T12:37:07;102316.03;;;12.21;100.00
81658;BME280;71057;51.436;6.768;2024-01-30T12:39:35;102315.19;;;12.20;100.00
81658;BME280;71057;51.436;6.768;2024-01-30T12:42:00;102308.94;;;12.13;100.00
81658;BME280;71057;51.436;6.768;2024-01-30T12:44:26;102308.06;;;12.06;100.00
81658;BME280;71057;51.436;6.768;2024-01-30T12:46:51;102307.59;;;12.02;100.00
81658;BME280;71057;51.436;6.768;2024-01-30T12:49:17;102320.50;;;12.00;100.00